Date,TemperatureHighF,TemperatureAvgF,TemperatureLowF,DewpointHighF,DewpointAvgF,DewpointLowF,HumidityHigh,HumidityAvg,HumidityLow,PressureMaxIn,PressureMinIn,WindSpeedMaxMPH,WindSpeedAvgMPH,GustSpeedMaxMPH,PrecipitationSumIn
2013-1-1,68,58,47,68,56,43,100,94,85,30.19,29.90,14,3,18,0.05
2013-1-2,47,43,41,43,40,38,95,91,86,30.30,30.16,10,2,15,0.16
2013-1-3,53,46,40,38,36,32,89,71,48,30.40,30.28,13,3,16,0.00
2013-1-4,50,47,44,39,38,34,77,69,56,30.48,30.35,13,3,15,0.00
2013-1-5,48,45,43,46,43,38,98,93,69,30.37,30.25,8,2,12,0.28
2013-1-6,59,48,38,46,43,37,99,86,56,30.35,30.25,12,2,15,0.00
2013-1-7,58,48,34,53,45,33,99,89,75,30.31,30.06,11,2,13,0.00
2013-1-8,67,61,54,67,60,52,100,98,94,30.08,29.87,15,2,16,0.45
2013-1-9,68,65,61,67,64,61,99,97,92,30.10,29.84,18,5,24,0.69
2013-1-10,70,59,47,61,55,46,100,88,46,30.12,29.99,6,1,10,0.00
2013-1-11,71,59,44,71,57,44,100,94,77,30.07,29.88,8,2,12,0.01
2013-1-12,73,71,69,72,70,69,100,97,92,29.90,29.69,14,4,19,0.00
2013-1-13,71,51,42,70,47,40,98,87,75,30.11,29.78,16,5,22,0.22
2013-1-14,48,44,40,42,41,39,96,88,76,30.20,30.06,12,4,18,0.00
2013-1-15,44,40,37,42,38,35,97,93,88,30.15,30.03,13,4,18,0.04
2013-1-16,50,40,27,35,29,24,94,68,36,30.32,30.14,18,4,19,0.00
2013-1-17,62,42,26,37,31,25,98,70,31,30.47,30.30,10,1,15,0.00
2013-1-18,60,44,32,47,38,32,99,82,49,30.53,30.38,9,2,12,0.00
2013-1-19,67,51,34,54,46,33,100,86,51,30.38,30.20,9,1,12,0.00
2013-1-20,71,54,40,59,49,40,100,86,53,30.27,30.13,12,1,13,0.01
2013-1-21,70,55,43,59,49,43,100,82,47,30.25,30.14,7,1,12,0.00
2013-1-22,70,53,42,56,49,42,99,87,49,30.33,30.20,11,1,12,0.00
2013-1-23,73,61,46,63,57,45,100,88,66,30.36,30.25,7,1,11,0.01
2013-1-24,77,66,60,67,62,60,100,89,60,30.31,30.18,12,2,17,0.02
2013-1-25,76,66,60,66,63,59,100,90,63,30.21,30.10,12,2,18,0.01
2013-1-26,76,64,55,68,60,54,100,89,63,30.20,30.12,10,2,13,0.01
2013-1-27,75,68,60,69,66,60,98,93,82,30.15,30.05,13,4,19,0.01
2013-1-28,76,70,67,70,68,66,98,92,79,30.12,29.97,15,4,20,0.00
2013-1-29,75,71,60,71,69,56,98,94,86,29.97,29.64,21,6,27,0.05
2013-1-30,61,55,34,56,32,23,88,46,25,30.28,29.77,23,6,29,0.00
2013-1-31,66,47,29,44,32,24,97,65,22,30.34,30.23,11,1,14,0.00
2013-2-1,69,55,42,56,45,40,99,73,37,30.38,30.25,9,1,17,0.00
2013-2-2,74,58,44,60,52,43,100,83,51,30.27,30.18,8,1,8,0.00
2013-2-3,69,58,47,53,47,34,100,73,33,30.33,30.08,11,2,16,0.00
2013-2-4,74,65,55,65,61,52,99,88,69,30.07,29.85,10,2,15,0.00
2013-2-5,80,67,61,69,65,60,100,93,65,30.00,29.88,9,2,12,0.01
2013-2-6,68,64,59,66,63,58,100,97,94,30.03,29.84,16,3,20,0.19
2013-2-7,70,61,52,66,60,52,100,95,84,30.01,29.91,7,1,8,0.00
2013-2-8,70,61,54,62,54,51,99,80,56,30.18,30.01,9,2,14,0.00
2013-2-9,70,64,55,68,61,53,96,91,79,30.12,29.88,16,5,19,0.00
2013-2-10,73,67,59,71,64,56,98,90,77,29.96,29.78,13,4,18,0.02
2013-2-11,64,58,55,58,55,50,99,90,73,30.04,29.95,13,4,21,0.10
2013-2-12,67,60,56,67,59,54,100,95,86,30.00,29.81,9,2,14,0.03
2013-2-13,60,51,39,54,43,38,94,75,52,30.15,30.00,10,3,16,0.04
2013-2-14,66,49,35,48,40,34,99,76,36,30.17,30.06,8,1,12,0.00
2013-2-15,68,53,36,52,43,36,100,72,41,30.32,30.11,12,2,19,0.00
2013-2-16,62,50,38,41,32,24,88,55,28,30.46,30.28,9,2,16,0.00
2013-2-17,68,55,36,56,45,35,99,73,44,30.29,30.06,16,3,21,0.00
2013-2-18,74,68,60,66,62,52,94,81,72,30.09,29.88,17,6,24,0.02
2013-2-19,67,58,50,52,45,38,93,65,36,30.25,30.09,13,3,20,0.07
2013-2-20,68,63,57,67,57,46,95,83,62,30.12,29.79,17,7,26,0.04
2013-2-21,73,69,60,71,64,50,97,86,55,29.85,29.69,18,5,25,0.16
2013-2-22,69,63,58,56,51,45,85,65,43,29.97,29.83,16,3,16,0.00
2013-2-23,69,58,48,55,51,46,97,77,60,30.00,29.90,11,2,14,0.00
2013-2-24,68,57,42,61,54,41,100,91,75,29.94,29.67,12,3,16,0.00
2013-2-25,74,64,50,69,46,16,99,61,12,29.83,29.56,22,6,34,0.01
2013-2-26,65,53,43,45,36,33,90,54,31,29.96,29.82,11,4,17,0.00
2013-2-27,72,55,39,56,41,31,99,64,31,30.19,29.92,16,3,21,0.00
2013-2-28,56,48,37,34,31,28,85,53,36,30.29,30.17,12,2,15,0.00
2013-3-1,65,52,38,39,32,28,86,51,25,30.30,30.15,12,2,16,0.00
2013-3-2,56,47,33,38,29,21,76,51,26,30.38,30.25,17,4,27,0.00
2013-3-3,65,50,29,54,38,26,93,67,37,30.31,30.04,12,3,15,0.00
2013-3-4,75,67,59,63,60,54,89,78,63,30.04,29.82,25,7,30,0.00
2013-3-5,69,63,49,64,45,28,90,56,24,30.31,29.84,20,5,22,0.00
2013-3-6,67,51,33,42,32,25,84,52,22,30.43,30.25,9,1,16,0.00
2013-3-7,68,54,38,52,46,37,98,77,49,30.28,30.19,13,3,17,0.00
2013-3-8,71,63,54,62,59,53,97,86,71,30.20,30.08,16,4,20,0.00
2013-3-9,74,68,64,66,64,61,96,88,76,30.07,29.76,17,5,29,0.00
2013-3-10,69,64,55,67,57,39,95,79,47,30.06,29.72,15,4,19,0.16
2013-3-11,63,54,40,40,30,19,74,44,19,30.15,30.00,16,4,23,0.00
2013-3-12,73,52,33,46,38,27,92,63,26,30.25,30.09,10,1,15,0.00
2013-3-13,70,55,42,50,43,36,98,70,31,30.44,30.25,13,2,16,0.00
2013-3-14,71,56,41,57,47,40,99,76,38,30.43,30.31,12,2,16,0.00
2013-3-15,75,61,44,62,55,44,99,82,56,30.30,30.09,14,3,18,0.00
2013-3-16,77,67,55,65,61,54,98,83,64,30.09,29.88,15,4,21,0.00
2013-3-17,77,69,62,69,66,60,99,90,75,29.89,29.73,12,3,19,0.00
2013-3-18,82,73,64,70,68,63,98,86,64,29.89,29.74,12,2,14,0.00
2013-3-19,78,68,63,67,63,57,99,85,68,29.99,29.88,13,4,20,0.00
2013-3-20,74,65,52,64,54,42,96,71,33,30.17,29.93,15,4,21,0.00
2013-3-21,72,62,51,64,57,50,99,83,54,30.06,29.73,17,3,21,0.00
2013-3-22,78,69,67,71,67,64,98,94,78,29.75,29.68,10,3,14,0.00